Terminal Aerodrome Forecast
Issued by NWS

Home | Current Version | Previous Version | Text Only | Print | Product List | Glossary On
Versions: 1 2 3 4 5 6 7 8 9 10 11 12 13 14 15 16 17 18 19 20 21 22 23 24 25 26 27
000
FTUS42 KMFL 242106 AAA
TAFOPF
TAF AMD
KOPF 242106Z 2421/2518 04010G20KT P6SM VCSH SCT025 OVC035
     FM242300 03012G22KT P6SM SCT030 BKN050
     FM250500 35008KT P6SM SCT030 SCT120=

USA.gov is the U.S. government's official web portal to all federal, state and local government web resources and services.